Time;durP1;ratioP1;P1;durP2;ratioP2;P2;SDS_P1;SDS_P2;PMS_P1;PMS_P2;Temp;Humidity;BMP_temperature;BMP_pressure;BME280_temperature;BME280_humidity;BME280_pressure;Samples;Min_cycle;Max_cycle;Signal;HPM_P1;HPM_P2
2021/11/28 00:01:11;;;;;;;13.33;11.07;;;;;;;0.97;100.00;96112.56;5138882;27;20210;-62
2021/11/28 00:03:38;;;;;;;14.53;11.03;;;;;;;0.94;100.00;96104.97;5138391;27;20208;-62
2021/11/28 00:06:07;;;;;;;15.73;10.97;;;;;;;0.95;100.00;96101.44;5136598;27;20237;-62
2021/11/28 00:08:45;;;;;;;14.33;11.97;;;;;;;1.02;100.00;96105.31;5138830;27;20214;-62
2021/11/28 00:11:23;;;;;;;15.60;11.30;;;;;;;1.00;100.00;96104.56;5139445;27;20213;-62
2021/11/28 00:14:05;;;;;;;13.90;10.93;;;;;;;1.04;100.00;96110.44;5138749;27;20209;-62
2021/11/28 00:16:31;;;;;;;13.63;10.73;;;;;;;1.05;100.00;96112.91;5138213;27;20217;-62
2021/11/28 00:18:58;;;;;;;13.50;10.73;;;;;;;0.99;100.00;96113.28;5138609;27;20296;-62
2021/11/28 00:21:25;;;;;;;11.93;9.90;;;;;;;0.98;100.00;96103.00;5135421;27;20209;-62
2021/11/28 00:23:51;;;;;;;15.80;11.00;;;;;;;0.98;100.00;96101.22;5138399;27;20217;-62
2021/11/28 00:26:19;;;;;;;15.03;10.90;;;;;;;0.99;100.00;96102.88;5138283;27;20277;-62
2021/11/28 00:28:46;;;;;;;12.50;10.67;;;;;;;1.01;100.00;96111.44;5130115;27;20220;-62
2021/11/28 00:31:13;;;;;;;14.90;12.27;;;;;;;0.98;100.00;96106.44;5140913;27;20231;-62
2021/11/28 00:33:40;;;;;;;13.60;10.67;;;;;;;0.99;100.00;96102.88;5136254;27;20217;-62
2021/11/28 00:36:06;;;;;;;13.30;10.27;;;;;;;0.96;100.00;96105.72;5137812;27;20247;-62
2021/11/28 00:38:33;;;;;;;14.50;10.37;;;;;;;0.97;100.00;96109.13;5138073;27;20292;-62
2021/11/28 00:41:00;;;;;;;16.03;11.87;;;;;;;0.93;100.00;96103.28;5140610;27;20216;-62
2021/11/28 00:43:27;;;;;;;14.83;10.87;;;;;;;0.94;100.00;96099.78;5137745;27;20319;-62
2021/11/28 00:45:54;;;;;;;13.77;9.77;;;;;;;0.94;100.00;96099.78;5137961;27;20595;-62
2021/11/28 00:48:23;;;;;;;16.23;10.50;;;;;;;0.92;100.00;96101.63;5137590;27;20212;-62
2021/11/28 00:50:53;;;;;;;13.33;9.63;;;;;;;0.94;100.00;96104.97;5140475;27;20208;-62
2021/11/28 00:53:20;;;;;;;14.43;10.53;;;;;;;0.92;100.00;96100.81;5137773;27;20242;-62
2021/11/28 00:55:47;;;;;;;13.07;10.53;;;;;;;0.91;100.00;96099.97;5137510;27;20734;-62
2021/11/28 00:58:13;;;;;;;15.37;10.17;;;;;;;0.92;100.00;96095.59;5135989;27;20210;-62
2021/11/28 01:00:43;;;;;;;12.43;9.33;;;;;;;0.94;100.00;96104.13;5140559;27;20214;-62
2021/11/28 01:03:09;;;;;;;11.90;9.17;;;;;;;0.94;100.00;96114.53;5137255;27;20214;-62
2021/11/28 01:05:36;;;;;;;12.60;9.80;;;;;;;0.94;100.00;96120.59;5134769;27;20208;-62
2021/11/28 01:08:03;;;;;;;13.20;9.57;;;;;;;0.94;100.00;96109.34;5136732;27;20243;-62
2021/11/28 01:10:30;;;;;;;12.87;9.57;;;;;;;0.97;100.00;96117.78;5140040;27;20213;-62
2021/11/28 01:12:57;;;;;;;13.60;9.83;;;;;;;0.96;100.00;96107.47;5137154;27;20215;-62
2021/11/28 01:15:24;;;;;;;11.87;10.00;;;;;;;1.00;100.00;96116.75;5137145;27;20213;-62
2021/11/28 01:17:52;;;;;;;14.43;10.07;;;;;;;0.99;100.00;96112.47;5137407;27;20220;-62
2021/11/28 01:20:18;;;;;;;15.27;10.37;;;;;;;0.97;100.00;96117.78;5140129;27;20215;-62
2021/11/28 01:22:45;;;;;;;14.43;10.40;;;;;;;0.96;100.00;96121.31;5136907;27;20686;-62
2021/11/28 01:25:14;;;;;;;14.30;10.33;;;;;;;0.96;100.00;96134.31;5135609;27;20591;-63
2021/11/28 01:27:42;;;;;;;16.40;10.30;;;;;;;0.97;100.00;96125.56;5137135;27;20236;-62
2021/11/28 01:30:09;;;;;;;12.40;9.30;;;;;;;0.98;100.00;96135.03;5139928;27;20205;-63
2021/11/28 01:32:38;;;;;;;11.57;9.53;;;;;;;0.99;100.00;96131.50;5136823;27;20216;-62
2021/11/28 01:35:08;;;;;;;12.63;9.67;;;;;;;0.96;100.00;96131.72;5136965;27;20288;-62
2021/11/28 01:37:35;;;;;;;12.37;9.40;;;;;;;1.00;100.00;96134.94;5136970;27;20219;-62
2021/11/28 01:40:04;;;;;;;10.37;8.87;;;;;;;0.98;100.00;96132.44;5139724;27;20219;-62
2021/11/28 01:42:40;;;;;;;11.43;8.90;;;;;;;1.05;100.00;96136.31;5136804;27;20221;-62
2021/11/28 01:45:10;;;;;;;12.27;8.97;;;;;;;1.02;100.00;96139.13;5130291;27;20242;-62
2021/11/28 01:47:36;;;;;;;11.73;9.03;;;;;;;1.00;100.00;96145.34;5137794;27;20241;-62
2021/11/28 01:50:05;;;;;;;11.13;8.73;;;;;;;1.00;100.00;96148.75;5136757;27;20209;-62
2021/11/28 01:52:35;;;;;;;9.97;8.43;;;;;;;1.01;100.00;96158.25;5136891;27;20220;-62
2021/11/28 01:55:04;;;;;;;12.87;9.13;;;;;;;1.00;100.00;96158.34;5136929;27;20252;-62
2021/11/28 01:57:31;;;;;;;13.07;10.00;;;;;;;0.98;100.00;96158.44;5138566;27;20215;-62
2021/11/28 01:59:58;;;;;;;11.77;9.00;;;;;;;0.97;100.00;96153.31;5128701;27;20206;-62
2021/11/28 02:02:25;;;;;;;9.83;7.90;;;;;;;1.00;100.00;96150.56;5126297;27;20213;-62
2021/11/28 02:04:52;;;;;;;12.53;9.40;;;;;;;0.98;100.00;96152.44;5122214;28;20690;-62
2021/11/28 02:07:20;;;;;;;10.77;8.27;;;;;;;0.97;100.00;96154.19;5127168;27;20243;-62
2021/11/28 02:09:47;;;;;;;12.80;9.17;;;;;;;0.96;100.00;96149.91;5129097;27;20292;-63
2021/11/28 02:12:14;;;;;;;11.60;9.03;;;;;;;1.00;100.00;96151.38;5127861;27;20209;-62
2021/11/28 02:14:40;;;;;;;12.40;8.80;;;;;;;0.95;100.00;96152.59;5136781;27;20211;-63
2021/11/28 02:17:07;;;;;;;11.23;8.50;;;;;;;0.98;100.00;96158.44;5136070;27;20216;-62
2021/11/28 02:19:33;;;;;;;12.10;9.30;;;;;;;1.01;100.00;96157.41;5141665;27;20684;-62
2021/11/28 02:22:01;;;;;;;10.77;8.47;;;;;;;1.01;100.00;96158.25;5140775;27;20207;-62
2021/11/28 02:24:28;;;;;;;11.20;8.30;;;;;;;1.03;100.00;96161.59;5140783;27;20216;-62
2021/11/28 02:26:54;;;;;;;9.87;8.27;;;;;;;1.06;100.00;96150.16;5141248;27;20266;-62
2021/11/28 02:29:21;;;;;;;10.93;7.83;;;;;;;1.02;100.00;96139.13;5142603;27;20295;-62
2021/11/28 02:31:48;;;;;;;11.90;8.97;;;;;;;1.02;100.00;96133.91;5140274;27;20215;-62
2021/11/28 02:34:15;;;;;;;14.77;9.27;;;;;;;1.07;100.00;96142.28;5140184;27;20665;-62
2021/11/28 02:36:42;;;;;;;11.20;8.50;;;;;;;1.09;100.00;96140.41;5140414;27;20213;-62
2021/11/28 02:39:09;;;;;;;11.53;8.60;;;;;;;1.08;100.00;96141.34;5142370;27;20219;-62
2021/11/28 02:41:36;;;;;;;9.70;8.30;;;;;;;1.14;100.00;96143.53;5140006;27;20213;-62
2021/11/28 02:44:02;;;;;;;10.13;7.73;;;;;;;1.20;100.00;96139.72;5138519;27;20247;-62
2021/11/28 02:46:29;;;;;;;11.87;8.83;;;;;;;1.23;100.00;96136.94;5140157;27;20238;-62
2021/11/28 02:48:55;;;;;;;12.10;8.30;;;;;;;1.23;100.00;96139.53;5137554;27;20205;-62
2021/11/28 02:51:22;;;;;;;12.00;8.07;;;;;;;1.26;100.00;96140.16;5140227;27;20209;-62
2021/11/28 02:53:49;;;;;;;10.43;8.40;;;;;;;1.27;100.00;96144.44;5140395;27;20209;-62
2021/11/28 02:56:17;;;;;;;10.13;8.23;;;;;;;1.28;100.00;96140.88;5139964;27;20213;-62
2021/11/28 02:58:46;;;;;;;9.67;8.07;;;;;;;1.28;100.00;96146.09;5138045;27;20216;-62
2021/11/28 03:01:15;;;;;;;9.83;8.20;;;;;;;1.28;100.00;96133.09;5127661;27;20209;-62
2021/11/28 03:03:42;;;;;;;10.93;8.23;;;;;;;1.29;100.00;96142.56;5139820;27;20210;-62
2021/11/28 03:06:09;;;;;;;12.03;7.93;;;;;;;1.29;100.00;96137.34;5137115;27;20213;-62
2021/11/28 03:08:35;;;;;;;9.03;8.10;;;;;;;1.34;100.00;96143.09;5135477;27;20601;-62
2021/11/28 03:11:02;;;;;;;9.23;7.27;;;;;;;1.35;100.00;96134.34;5127536;27;20224;-62
2021/11/28 03:13:32;;;;;;;12.30;8.20;;;;;;;1.38;100.00;96133.31;5139776;27;20220;-62
2021/11/28 03:16:01;;;;;;;10.00;7.67;;;;;;;1.42;100.00;96135.63;5139830;27;20209;-62
2021/11/28 03:18:29;;;;;;;9.33;8.03;;;;;;;1.46;100.00;96129.28;5137108;27;20700;-62
2021/11/28 03:20:58;;;;;;;9.00;7.73;;;;;;;1.42;100.00;96133.00;5139541;27;20589;-62
2021/11/28 03:23:28;;;;;;;9.77;7.67;;;;;;;1.43;100.00;96139.91;5139687;27;20210;-62
2021/11/28 03:26:05;;;;;;;9.30;7.20;;;;;;;1.41;100.00;96123.53;5140109;27;20213;-63
2021/11/28 03:28:33;;;;;;;9.27;7.73;;;;;;;1.38;100.00;96130.72;5139717;27;20601;-62
2021/11/28 03:31:00;;;;;;;9.37;7.43;;;;;;;1.38;100.00;96130.72;5138405;27;20216;-62
2021/11/28 03:33:26;;;;;;;8.73;7.07;;;;;;;1.39;100.00;96122.81;5138984;27;20678;-62
2021/11/28 03:35:53;;;;;;;9.17;7.67;;;;;;;1.41;100.00;96125.34;5139770;27;20583;-62
2021/11/28 03:38:20;;;;;;;8.73;7.73;;;;;;;1.41;100.00;96123.53;5139724;27;20574;-62
2021/11/28 03:40:46;;;;;;;10.90;8.23;;;;;;;1.37;100.00;96121.25;5139284;27;20216;-61
2021/11/28 03:43:13;;;;;;;10.97;8.20;;;;;;;1.32;100.00;96113.75;5139265;27;20220;-62
2021/11/28 03:45:41;;;;;;;11.77;8.50;;;;;;;1.33;100.00;96120.63;5140876;27;20233;-62
2021/11/28 03:48:08;;;;;;;10.67;8.47;;;;;;;1.32;100.00;96111.16;5139753;27;20247;-62
2021/11/28 03:50:35;;;;;;;10.67;8.40;;;;;;;1.29;100.00;96113.94;5138909;27;20216;-62
2021/11/28 03:53:01;;;;;;;9.47;7.47;;;;;;;1.34;100.00;96116.22;5138686;27;20216;-62
2021/11/28 03:55:28;;;;;;;9.07;7.50;;;;;;;1.30;100.00;96110.38;5140033;27;20211;-62
2021/11/28 03:57:55;;;;;;;8.73;7.23;;;;;;;1.29;100.00;96116.53;5140035;27;20287;-62
2021/11/28 04:00:21;;;;;;;9.63;7.23;;;;;;;1.32;100.00;96112.91;5137092;27;20235;-62
2021/11/28 04:02:50;;;;;;;8.73;7.10;;;;;;;1.32;100.00;96110.31;5138877;27;20210;-62
2021/11/28 04:05:16;;;;;;;9.17;7.80;;;;;;;1.31;100.00;96114.69;5136933;27;20313;-62
2021/11/28 04:07:43;;;;;;;11.60;7.70;;;;;;;1.33;100.00;96118.00;5140187;27;20594;-62
2021/11/28 04:10:10;;;;;;;9.93;7.10;;;;;;;1.32;100.00;96116.34;5138687;27;20589;-62
2021/11/28 04:12:37;;;;;;;8.07;7.10;;;;;;;1.34;100.00;96118.81;5138625;27;20224;-62
2021/11/28 04:15:04;;;;;;;10.33;7.33;;;;;;;1.36;100.00;96123.00;5136090;27;20218;-62
2021/11/28 04:17:31;;;;;;;10.13;7.07;;;;;;;1.38;100.00;96126.38;5140327;27;20210;-62
2021/11/28 04:19:59;;;;;;;8.73;6.93;;;;;;;1.40;100.00;96129.69;5138528;27;20592;-62
2021/11/28 04:22:26;;;;;;;8.63;7.30;;;;;;;1.41;100.00;96120.94;5138493;27;20579;-62
2021/11/28 04:24:54;;;;;;;9.27;7.37;;;;;;;1.38;100.00;96118.56;5138992;27;20215;-62
2021/11/28 04:27:20;;;;;;;9.83;7.73;;;;;;;1.36;100.00;96115.19;5138326;27;20225;-63
2021/11/28 04:29:47;;;;;;;10.03;7.87;;;;;;;1.37;100.00;96114.28;5138397;27;20292;-62
2021/11/28 04:32:14;;;;;;;8.50;7.37;;;;;;;1.41;100.00;96114.91;5138349;27;20213;-62
2021/11/28 04:34:40;;;;;;;10.77;7.77;;;;;;;1.41;100.00;96120.13;5138000;27;20214;-62
2021/11/28 04:37:08;;;;;;;9.50;6.97;;;;;;;1.39;100.00;96116.78;5140640;27;20208;-62
2021/11/28 04:39:36;;;;;;;9.50;7.30;;;;;;;1.35;100.00;96113.53;5125898;27;20692;-62
2021/11/28 04:42:02;;;;;;;10.53;7.00;;;;;;;1.39;100.00;96107.22;5138081;27;20209;-62
2021/11/28 04:44:29;;;;;;;8.63;7.20;;;;;;;1.43;100.00;96111.28;5137600;27;20241;-62
2021/11/28 04:46:56;;;;;;;11.17;7.23;;;;;;;1.43;100.00;96103.47;5135086;27;20209;-62
2021/11/28 04:49:25;;;;;;;9.97;7.43;;;;;;;1.47;100.00;96111.91;5125156;27;20230;-62
2021/11/28 04:51:51;;;;;;;9.27;7.27;;;;;;;1.43;100.00;96113.91;5137542;27;20217;-62
2021/11/28 04:54:19;;;;;;;8.77;7.20;;;;;;;1.41;100.00;96109.72;5136111;27;20214;-62
2021/11/28 04:56:46;;;;;;;9.80;7.07;;;;;;;1.41;100.00;96110.53;5134798;27;20695;-62
2021/11/28 04:59:12;;;;;;;10.10;8.13;;;;;;;1.48;100.00;96106.59;5138040;27;20304;-62
2021/11/28 05:01:39;;;;;;;8.13;7.10;;;;;;;1.51;100.00;96106.41;5137720;27;20305;-61
2021/11/28 05:04:06;;;;;;;11.50;8.17;;;;;;;1.51;100.00;96109.00;5137474;27;20578;-62
2021/11/28 05:06:32;;;;;;;9.43;7.90;;;;;;;1.49;100.00;96113.50;5137354;27;20212;-62
2021/11/28 05:08:59;;;;;;;11.07;8.23;;;;;;;1.49;100.00;96107.44;5137511;27;20605;-62
2021/11/28 05:11:27;;;;;;;11.53;7.90;;;;;;;1.53;100.00;96108.91;5137178;27;20679;-62
2021/11/28 05:13:53;;;;;;;11.63;8.13;;;;;;;1.47;100.00;96104.94;5137169;27;20638;-62
2021/11/28 05:16:20;;;;;;;10.00;7.80;;;;;;;1.47;100.00;96102.31;5139955;27;20295;-62
2021/11/28 05:18:47;;;;;;;10.43;7.53;;;;;;;1.50;100.00;96104.75;5135580;27;20205;-62
2021/11/28 05:21:13;;;;;;;9.50;7.77;;;;;;;1.50;100.00;96104.75;5137442;27;20604;-62
2021/11/28 05:23:40;;;;;;;11.30;8.63;;;;;;;1.51;100.00;96106.41;5137136;27;20578;-62
2021/11/28 05:26:06;;;;;;;11.03;8.93;;;;;;;1.55;100.00;96107.88;5139697;27;20583;-63
2021/11/28 05:28:34;;;;;;;14.27;9.77;;;;;;;1.52;100.00;96105.47;5135952;27;20233;-63
2021/11/28 05:31:01;;;;;;;9.50;8.47;;;;;;;1.52;100.00;96110.66;5137198;27;20235;-62
2021/11/28 05:33:27;;;;;;;12.27;8.47;;;;;;;1.52;100.00;96102.00;5137083;27;20209;-63
2021/11/28 05:35:54;;;;;;;11.13;8.70;;;;;;;1.52;100.00;96102.88;5139559;27;20300;-62
2021/11/28 05:38:20;;;;;;;12.03;8.13;;;;;;;1.54;100.00;96108.78;5137188;27;20216;-62
2021/11/28 05:40:47;;;;;;;11.37;8.67;;;;;;;1.51;100.00;96106.41;5136846;27;20211;-62
2021/11/28 05:43:14;;;;;;;9.67;8.10;;;;;;;1.50;100.00;96103.91;5137019;27;20301;-62
2021/11/28 05:45:42;;;;;;;11.33;8.73;;;;;;;1.46;100.00;96113.69;5137257;27;20601;-62
2021/11/28 05:48:08;;;;;;;10.23;8.70;;;;;;;1.44;100.00;96120.75;5137430;27;20241;-62
2021/11/28 05:50:35;;;;;;;11.87;9.00;;;;;;;1.36;100.00;96115.19;5136918;27;20213;-62
2021/11/28 05:53:02;;;;;;;10.83;8.20;;;;;;;1.37;100.00;96121.25;5136133;27;20292;-62
2021/11/28 05:55:29;;;;;;;10.30;7.90;;;;;;;1.39;100.00;96128.03;5138433;27;20231;-62
2021/11/28 05:57:56;;;;;;;11.27;8.17;;;;;;;1.34;100.00;96130.09;5137711;27;20217;-62
2021/11/28 06:00:24;;;;;;;10.20;8.03;;;;;;;1.32;100.00;96120.72;5136453;27;20305;-62
2021/11/28 06:02:52;;;;;;;9.97;7.60;;;;;;;1.31;100.00;96127.69;5136888;27;20210;-62
2021/11/28 06:05:18;;;;;;;10.83;7.90;;;;;;;1.31;100.00;96132.06;5135258;27;20217;-62
2021/11/28 06:07:45;;;;;;;10.20;7.93;;;;;;;1.24;100.00;96128.19;5137684;27;20240;-62
2021/11/28 06:10:11;;;;;;;9.13;7.87;;;;;;;1.24;100.00;96134.19;5135368;27;20213;-62
2021/11/28 06:12:38;;;;;;;10.80;7.77;;;;;;;1.22;100.00;96136.06;5136589;27;20223;-62
2021/11/28 06:15:06;;;;;;;9.90;7.87;;;;;;;1.25;100.00;96148.91;5137840;27;20296;-62
2021/11/28 06:17:32;;;;;;;11.50;8.47;;;;;;;1.28;100.00;96146.09;5138011;27;20212;-62
2021/11/28 06:20:00;;;;;;;8.97;7.53;;;;;;;1.24;100.00;96144.59;5136495;27;20211;-63
2021/11/28 06:22:27;;;;;;;9.03;7.60;;;;;;;1.22;100.00;96146.47;5136621;27;20210;-62
2021/11/28 06:24:53;;;;;;;10.97;8.13;;;;;;;1.18;100.00;96145.00;5137147;27;20701;-62
2021/11/28 06:27:20;;;;;;;12.83;7.83;;;;;;;1.19;100.00;96144.09;5138014;27;20662;-63
2021/11/28 06:29:47;;;;;;;10.77;7.67;;;;;;;1.20;100.00;96143.16;5136089;27;20336;-63
2021/11/28 06:32:14;;;;;;;11.67;7.93;;;;;;;1.20;100.00;96143.16;5136230;27;20209;-63
2021/11/28 06:34:40;;;;;;;9.63;8.10;;;;;;;1.20;100.00;96145.75;5136786;27;20215;-62
2021/11/28 06:37:08;;;;;;;10.23;8.47;;;;;;;1.24;100.00;96149.81;5136992;27;20589;-62
2021/11/28 06:39:35;;;;;;;10.27;8.33;;;;;;;1.27;100.00;96152.22;5136169;27;20674;-62
2021/11/28 06:42:01;;;;;;;11.07;8.47;;;;;;;1.22;100.00;96145.66;5136529;27;20566;-62
2021/11/28 06:44:28;;;;;;;9.70;7.90;;;;;;;1.24;100.00;96155.00;5134653;27;20242;-62
2021/11/28 06:46:54;;;;;;;10.73;7.67;;;;;;;1.25;100.00;96145.47;5139040;27;20572;-62
2021/11/28 06:49:24;;;;;;;9.50;7.87;;;;;;;1.22;100.00;96151.69;5123853;27;20237;-62
2021/11/28 06:51:50;;;;;;;9.13;7.73;;;;;;;1.20;100.00;96153.56;5136322;27;20574;-62
2021/11/28 06:54:18;;;;;;;9.90;8.03;;;;;;;1.21;100.00;96154.38;5135911;27;20216;-62
2021/11/28 06:56:45;;;;;;;11.27;8.10;;;;;;;1.17;100.00;96150.31;5133433;27;20209;-62
2021/11/28 06:59:11;;;;;;;10.80;8.57;;;;;;;1.17;100.00;96156.34;5123763;27;20209;-62
2021/11/28 07:01:38;;;;;;;10.03;7.57;;;;;;;1.18;100.00;96152.81;5135877;27;20217;-62
2021/11/28 07:04:05;;;;;;;11.80;8.10;;;;;;;1.18;100.00;96165.81;5134327;27;20202;-62
2021/11/28 07:06:31;;;;;;;11.37;8.20;;;;;;;1.17;100.00;96158.94;5139510;27;20576;-62
2021/11/28 07:08:58;;;;;;;9.13;8.20;;;;;;;1.17;100.00;96164.16;5139904;27;20259;-62
2021/11/28 07:11:26;;;;;;;10.37;8.20;;;;;;;1.18;100.00;96165.81;5139727;27;20213;-62
2021/11/28 07:13:52;;;;;;;11.17;8.10;;;;;;;1.23;100.00;96163.75;5139930;27;20303;-62
2021/11/28 07:16:19;;;;;;;11.53;8.20;;;;;;;1.27;100.00;96170.44;5142665;27;20208;-62
2021/11/28 07:18:46;;;;;;;10.63;8.23;;;;;;;1.29;100.00;96173.78;5139696;27;20649;-62
2021/11/28 07:21:13;;;;;;;10.70;8.43;;;;;;;1.30;100.00;96174.63;5139631;27;20205;-62
2021/11/28 07:23:40;;;;;;;9.53;7.77;;;;;;;1.30;100.00;96175.44;5139376;27;20220;-63
2021/11/28 07:26:07;;;;;;;9.53;7.50;;;;;;;1.33;100.00;96174.41;5142133;27;20223;-62
2021/11/28 07:28:36;;;;;;;10.97;7.80;;;;;;;1.34;100.00;96171.72;5137690;27;20234;-62
2021/11/28 07:31:02;;;;;;;11.47;8.27;;;;;;;1.36;100.00;96164.63;5139698;27;20225;-62
2021/11/28 07:33:29;;;;;;;8.87;7.30;;;;;;;1.37;100.00;96171.53;5139155;27;20210;-62
2021/11/28 07:35:55;;;;;;;9.50;7.43;;;;;;;1.37;100.00;96168.94;5141859;27;20204;-62
2021/11/28 07:38:22;;;;;;;9.57;7.60;;;;;;;1.43;100.00;96172.91;5139385;27;20213;-62
2021/11/28 07:40:48;;;;;;;11.10;7.97;;;;;;;1.46;100.00;96168.31;5139423;27;20216;-62
2021/11/28 07:43:16;;;;;;;8.43;7.03;;;;;;;1.50;100.00;96171.56;5139411;27;20211;-62
2021/11/28 07:45:44;;;;;;;11.17;7.10;;;;;;;1.57;100.00;96172.84;5141372;27;20268;-62
2021/11/28 07:48:11;;;;;;;8.83;7.37;;;;;;;1.59;100.00;96160.56;5137730;27;20210;-62
2021/11/28 07:50:37;;;;;;;8.73;6.93;;;;;;;1.58;100.00;96175.34;5138776;27;20706;-62
2021/11/28 07:53:04;;;;;;;8.83;7.17;;;;;;;1.62;100.00;96179.44;5139054;27;20224;-62
2021/11/28 07:55:30;;;;;;;8.30;6.83;;;;;;;1.66;100.00;96173.06;5139558;27;20292;-63
2021/11/28 07:57:57;;;;;;;8.97;6.70;;;;;;;1.66;100.00;96180.88;5139336;27;20210;-63
2021/11/28 08:00:24;;;;;;;7.93;6.67;;;;;;;1.67;100.00;96174.72;5138939;27;20216;-62
2021/11/28 08:02:51;;;;;;;8.03;6.90;;;;;;;1.67;100.00;96179.94;5138664;27;20601;-62
2021/11/28 08:05:18;;;;;;;8.63;6.97;;;;;;;1.66;100.00;96178.28;5137877;27;20299;-63
2021/11/28 08:07:45;;;;;;;8.27;6.87;;;;;;;1.67;100.00;96174.72;5139362;27;20218;-63
2021/11/28 08:10:12;;;;;;;8.03;7.10;;;;;;;1.72;100.00;96183.09;5138548;27;20243;-63
2021/11/28 08:12:39;;;;;;;8.23;6.73;;;;;;;1.74;100.00;96183.84;5138684;27;20205;-63
2021/11/28 08:15:08;;;;;;;8.80;7.23;;;;;;;1.78;100.00;96182.69;5139896;27;20421;-63
2021/11/28 08:17:38;;;;;;;10.37;7.13;;;;;;;1.82;100.00;96178.94;5138659;27;20213;-62
2021/11/28 08:20:07;;;;;;;7.60;6.43;;;;;;;1.86;100.00;96179.59;5137771;27;20220;-62
2021/11/28 08:22:34;;;;;;;11.73;7.50;;;;;;;1.88;100.00;96181.16;5137639;27;20209;-62
2021/11/28 08:25:01;;;;;;;9.47;8.03;;;;;;;1.94;100.00;96188.56;5140214;27;20206;-62
2021/11/28 08:27:27;;;;;;;8.77;6.73;;;;;;;1.96;100.00;96185.88;5138704;27;20276;-62
2021/11/28 08:29:55;;;;;;;7.57;6.47;;;;;;;1.95;100.00;96185.03;5137960;27;20706;-63
2021/11/28 08:32:22;;;;;;;8.70;6.90;;;;;;;1.94;100.00;96192.94;5137923;27;20214;-63
2021/11/28 08:34:48;;;;;;;9.73;7.23;;;;;;;1.98;100.00;96194.41;5140037;27;20213;-62
2021/11/28 08:37:16;;;;;;;9.63;6.77;;;;;;;2.01;100.00;96188.97;5138888;27;20213;-63
2021/11/28 08:39:44;;;;;;;9.43;7.47;;;;;;;2.01;100.00;96192.44;5138212;27;20216;-63
2021/11/28 08:42:10;;;;;;;11.23;7.63;;;;;;;2.02;100.00;96196.69;5137950;27;20262;-63
2021/11/28 08:44:37;;;;;;;11.20;7.93;;;;;;;2.09;100.00;96194.53;5139569;27;20718;-63
2021/11/28 08:47:05;;;;;;;10.20;8.00;;;;;;;2.18;100.00;96201.72;5137221;27;20220;-63
2021/11/28 08:49:31;;;;;;;10.20;7.00;;;;;;;2.28;100.00;96214.03;5137817;27;20233;-63
2021/11/28 08:51:58;;;;;;;9.73;7.40;;;;;;;2.34;100.00;96213.63;5137929;27;20213;-63
2021/11/28 08:54:30;;;;;;;9.27;7.47;;;;;;;2.41;100.00;96214.91;5139227;27;20209;-63
2021/11/28 08:56:56;;;;;;;8.27;6.90;;;;;;;2.47;100.00;96218.84;5134978;27;20221;-63
2021/11/28 08:59:25;;;;;;;8.23;7.13;;;;;;;2.54;100.00;96220.94;5136750;27;20215;-63
2021/11/28 09:01:52;;;;;;;8.70;7.07;;;;;;;2.57;100.00;96214.69;5136404;27;20270;-63
2021/11/28 09:04:19;;;;;;;9.27;7.43;;;;;;;2.56;100.00;96226.88;5136285;27;20209;-63
2021/11/28 09:06:45;;;;;;;7.77;6.87;;;;;;;2.58;100.00;96230.22;5132494;27;20201;-63
2021/11/28 09:09:12;;;;;;;10.23;7.20;;;;;;;2.57;100.00;96225.94;5130337;27;20236;-63
2021/11/28 09:11:40;;;;;;;8.67;6.87;;;;;;;2.62;100.00;96223.00;5134341;27;20205;-63
2021/11/28 09:14:07;;;;;;;8.77;7.20;;;;;;;2.66;100.00;96224.47;5132924;27;20213;-63
2021/11/28 09:16:33;;;;;;;8.83;7.87;;;;;;;2.74;100.00;96230.84;5134814;27;20592;-62
2021/11/28 09:19:05;;;;;;;10.07;7.73;;;;;;;2.73;100.00;96231.78;5134670;27;20221;-63
2021/11/28 09:21:33;;;;;;;8.83;7.37;;;;;;;2.77;100.00;96229.81;5134282;27;20829;-63
2021/11/28 09:26:45;;;;;;;7.60;6.83;;;;;;;2.86;100.00;96229.16;5127352;27;20274;-63
2021/11/28 09:29:12;;;;;;;7.87;7.07;;;;;;;2.95;100.00;96225.94;5133452;27;20241;-62
2021/11/28 09:31:39;;;;;;;8.43;7.07;;;;;;;3.03;100.00;96237.50;5134429;27;20213;-62
2021/11/28 09:34:05;;;;;;;9.70;7.37;;;;;;;3.11;100.00;96232.56;5127412;27;20209;-62
2021/11/28 09:36:32;;;;;;;8.63;7.13;;;;;;;3.19;100.00;96229.44;5119952;27;20231;-63
2021/11/28 09:39:00;;;;;;;7.37;6.53;;;;;;;3.26;100.00;96234.13;5125332;27;20222;-63
2021/11/28 09:41:32;;;;;;;8.57;6.90;;;;;;;3.28;100.00;96229.63;5124100;27;20666;-61
2021/11/28 09:44:07;;;;;;;7.93;7.00;;;;;;;3.28;100.00;96229.63;5123630;27;20230;-63
2021/11/28 09:46:34;;;;;;;9.60;7.93;;;;;;;3.33;100.00;96234.50;5126922;27;20224;-63
2021/11/28 09:49:05;;;;;;;9.00;6.97;;;;;;;3.29;100.00;96228.69;5126351;27;20322;-63
2021/11/28 09:51:32;;;;;;;9.57;6.90;;;;;;;3.26;100.00;96225.44;5122871;27;20232;-63
2021/11/28 09:54:00;;;;;;;7.93;6.97;;;;;;;3.20;100.00;96231.94;5124551;27;20212;-63
2021/11/28 09:56:28;;;;;;;7.97;7.17;;;;;;;3.11;100.00;96219.53;5126568;27;20212;-63
2021/11/28 09:58:55;;;;;;;8.10;7.13;;;;;;;3.08;100.00;96214.53;5125735;27;20219;-63
2021/11/28 10:01:24;;;;;;;9.33;7.20;;;;;;;3.05;100.00;96213.94;5123145;28;20214;-63
2021/11/28 10:03:51;;;;;;;9.20;7.67;;;;;;;3.10;100.00;96210.03;5128703;28;20205;-62
2021/11/28 10:06:19;;;;;;;9.10;7.20;;;;;;;3.12;100.00;96218.59;5125264;27;20215;-62
2021/11/28 10:08:46;;;;;;;8.07;7.07;;;;;;;3.13;100.00;96215.03;5125892;28;20209;-62
2021/11/28 10:12:01;;;;;;;9.07;7.40;;;;;;;3.09;100.00;96218.81;5122914;28;20209;-62
2021/11/28 10:14:27;;;;;;;9.57;7.23;;;;;;;3.10;100.00;96212.66;5121987;28;20213;-64
2021/11/28 10:16:55;;;;;;;9.67;7.30;;;;;;;3.19;100.00;96204.16;5122196;28;20217;-63
2021/11/28 10:19:22;;;;;;;8.67;7.77;;;;;;;3.29;100.00;96210.41;5121737;28;20210;-62
2021/11/28 10:21:50;;;;;;;7.73;6.73;;;;;;;3.39;100.00;96214.03;5125419;28;20224;-62
2021/11/28 10:24:18;;;;;;;9.03;6.53;;;;;;;3.45;100.00;96200.56;5125378;28;20239;-63
2021/11/28 10:26:56;;;;;;;9.63;7.37;;;;;;;3.50;100.00;96200.22;5122140;27;20566;-62
2021/11/28 10:29:24;;;;;;;10.17;7.33;;;;;;;3.43;100.00;96199.81;5123123;28;20233;-63
2021/11/28 10:31:52;;;;;;;9.23;8.20;;;;;;;3.39;100.00;96195.78;5123732;28;20221;-62
2021/11/28 10:34:22;;;;;;;9.73;7.60;;;;;;;3.45;100.00;96195.31;5124635;28;20236;-63
2021/11/28 10:36:50;;;;;;;8.07;7.23;;;;;;;3.50;100.00;96188.00;5121524;28;20221;-63
2021/11/28 10:39:18;;;;;;;9.23;7.67;;;;;;;3.58;100.00;96197.88;5125497;27;20210;-63
2021/11/28 10:41:50;;;;;;;8.87;7.77;;;;;;;3.64;100.00;96195.66;5129263;27;20300;-63
2021/11/28 10:44:18;;;;;;;9.63;7.57;;;;;;;3.68;100.00;96191.88;5132588;27;20313;-63
2021/11/28 10:46:46;;;;;;;9.17;7.17;;;;;;;3.69;100.00;96192.72;5125371;27;20313;-63
2021/11/28 10:49:15;;;;;;;8.40;7.43;;;;;;;3.67;100.00;96198.03;5128352;27;20694;-62
2021/11/28 10:51:46;;;;;;;8.67;7.00;;;;;;;3.66;100.00;96193.75;5129147;27;20213;-63
2021/11/28 10:54:30;;;;;;;8.60;7.00;;;;;;;3.64;100.00;96205.25;5126272;27;20214;-63
2021/11/28 10:57:15;;;;;;;9.87;7.93;;;;;;;3.57;100.00;96199.66;5127389;27;20249;-63
2021/11/28 10:59:43;;;;;;;8.60;6.97;;;;;;;3.54;100.00;96202.47;5134094;27;20220;-62
2021/11/28 11:02:20;;;;;;;8.50;7.33;;;;;;;3.48;100.00;96199.50;5136065;27;20206;-63
2021/11/28 11:04:47;;;;;;;8.27;6.80;;;;;;;3.43;100.00;96202.41;5136006;27;20248;-63
2021/11/28 11:07:15;;;;;;;9.73;7.67;;;;;;;3.43;100.00;96191.97;5136020;27;20209;-62
2021/11/28 11:09:43;;;;;;;9.33;6.97;;;;;;;3.45;100.00;96195.31;5135475;27;20264;-62
2021/11/28 11:12:21;;;;;;;9.43;7.27;;;;;;;3.44;100.00;96203.25;5135737;27;20206;-63
2021/11/28 11:14:48;;;;;;;8.77;7.23;;;;;;;3.43;100.00;96194.59;5135642;27;20255;-63
2021/11/28 11:17:14;;;;;;;8.53;7.53;;;;;;;3.49;100.00;96195.94;5135643;27;20220;-63
2021/11/28 11:19:44;;;;;;;8.27;7.07;;;;;;;3.52;100.00;96196.56;5135893;27;20218;-63
2021/11/28 11:22:15;;;;;;;7.87;7.07;;;;;;;3.57;100.00;96194.44;5135512;27;20219;-63
2021/11/28 11:24:49;;;;;;;7.70;6.57;;;;;;;3.64;100.00;96200.88;5126838;27;20308;-63
2021/11/28 11:27:18;;;;;;;8.87;6.60;;;;;;;3.65;100.00;96202.56;5135563;27;20575;-63
2021/11/28 11:29:48;;;;;;;9.20;6.47;;;;;;;3.66;100.00;96193.75;5135543;27;20233;-63
2021/11/28 11:32:16;;;;;;;8.17;6.67;;;;;;;3.69;100.00;96193.56;5135633;27;20213;-63
2021/11/28 11:34:50;;;;;;;6.77;6.00;;;;;;;3.72;100.00;96198.53;5135508;27;20311;-63